createdAt,value
2022-08-22T00:01:34.290Z,17.10
2022-08-22T00:03:01.449Z,18.60
2022-08-22T00:03:06.814Z,17.30
2022-08-22T00:03:10.965Z,17.40
2022-08-22T00:03:15.495Z,17.30
2022-08-22T00:04:14.869Z,17.10
2022-08-22T00:06:55.487Z,17.10
2022-08-22T00:09:32.912Z,17.00
2022-08-22T00:12:12.431Z,17.10
2022-08-22T00:14:47.754Z,17.20
2022-08-22T00:17:35.157Z,17.30
2022-08-22T00:20:13.401Z,17.20
2022-08-22T00:22:49.050Z,17.30
2022-08-22T00:25:55.115Z,17.30
2022-08-22T00:28:31.356Z,17.40
2022-08-22T00:31:03.441Z,17.40
2022-08-22T00:33:40.551Z,17.30
2022-08-22T00:36:23.380Z,17.40
2022-08-22T00:39:01.980Z,17.30
2022-08-22T00:41:46.089Z,17.20
2022-08-22T00:44:54.562Z,17.30
2022-08-22T00:47:46.913Z,17.30
2022-08-22T00:50:39.198Z,17.30
2022-08-22T00:53:51.890Z,17.30
2022-08-22T00:57:00.500Z,17.30
2022-08-22T00:59:57.838Z,17.30
2022-08-22T01:02:43.133Z,17.20
2022-08-22T01:05:44.801Z,17.20
2022-08-22T01:08:32.861Z,17.20
2022-08-22T01:11:16.584Z,17.20
2022-08-22T01:14:09.565Z,17.20
2022-08-22T01:16:58.654Z,17.10
2022-08-22T01:20:00.044Z,17.20
2022-08-22T01:23:05.179Z,17.10
2022-08-22T01:26:06.278Z,17.10
2022-08-22T01:29:28.361Z,17.20
2022-08-22T01:32:40.908Z,17.20
2022-08-22T01:36:01.614Z,17.20
2022-08-22T01:38:54.157Z,17.10
2022-08-22T01:42:01.197Z,17.10
2022-08-22T01:44:46.892Z,17.00
2022-08-22T01:47:20.941Z,17.10
2022-08-22T01:49:54.954Z,17.10
2022-08-22T01:52:39.287Z,17.10
2022-08-22T01:55:15.274Z,17.10
2022-08-22T01:57:55.523Z,17.10
2022-08-22T02:00:34.756Z,17.00
2022-08-22T02:03:20.348Z,17.10
2022-08-22T02:05:53.624Z,17.10
2022-08-22T02:08:33.812Z,17.00
2022-08-22T02:11:07.678Z,17.00
2022-08-22T02:13:54.462Z,17.10
2022-08-22T02:16:34.239Z,17.00
2022-08-22T02:19:20.028Z,16.90
2022-08-22T02:21:53.602Z,17.00
2022-08-22T02:24:30.100Z,17.00
2022-08-22T02:27:13.142Z,16.90
2022-08-22T02:29:50.079Z,16.80
2022-08-22T02:32:24.423Z,16.70
2022-08-22T02:35:03.722Z,16.80
2022-08-22T02:37:38.734Z,16.80
2022-08-22T02:40:16.204Z,16.80
2022-08-22T02:42:49.910Z,16.70
2022-08-22T02:45:26.121Z,16.70
2022-08-22T02:48:02.616Z,16.80
2022-08-22T02:50:39.699Z,16.70
2022-08-22T02:53:15.863Z,16.70
2022-08-22T02:55:53.620Z,16.70
2022-08-22T02:58:30.637Z,16.70
2022-08-22T03:01:33.447Z,16.60
2022-08-22T03:04:46.829Z,16.70
2022-08-22T03:07:24.549Z,16.70
2022-08-22T03:10:02.342Z,16.70
2022-08-22T03:12:40.428Z,16.70
2022-08-22T03:15:14.600Z,16.60
2022-08-22T03:17:52.480Z,16.70
2022-08-22T03:20:41.826Z,16.80
2022-08-22T03:23:17.309Z,16.80
2022-08-22T03:25:53.839Z,16.80
2022-08-22T03:28:29.325Z,16.80
2022-08-22T03:31:01.598Z,16.70
2022-08-22T03:33:32.629Z,16.70
2022-08-22T03:36:13.926Z,16.60
2022-08-22T03:38:53.999Z,16.70
2022-08-22T03:41:51.407Z,16.70
2022-08-22T03:44:55.859Z,16.70
2022-08-22T03:47:52.362Z,16.80
2022-08-22T03:50:48.327Z,16.80
2022-08-22T03:53:42.771Z,16.70
2022-08-22T03:56:54.078Z,16.60
2022-08-22T04:00:10.559Z,16.60
2022-08-22T04:03:05.107Z,16.60
2022-08-22T04:06:01.559Z,16.60
2022-08-22T04:08:51.564Z,16.60
2022-08-22T04:11:39.468Z,16.50
2022-08-22T04:14:37.087Z,16.50
2022-08-22T04:17:36.078Z,16.50
2022-08-22T04:20:31.874Z,16.60
2022-08-22T04:23:28.845Z,16.60
2022-08-22T04:26:12.006Z,16.50
2022-08-22T04:28:46.824Z,16.40
2022-08-22T04:31:19.752Z,16.50
2022-08-22T04:33:54.696Z,16.50
2022-08-22T04:36:29.059Z,16.50
2022-08-22T04:39:02.197Z,16.40
2022-08-22T04:41:39.689Z,16.30
2022-08-22T04:44:15.479Z,16.20
2022-08-22T04:46:49.335Z,16.30
2022-08-22T04:49:26.304Z,16.30
2022-08-22T04:52:10.731Z,16.40
2022-08-22T04:54:54.868Z,16.50
2022-08-22T04:57:33.425Z,16.50
2022-08-22T05:00:05.653Z,16.60
2022-08-22T05:02:38.002Z,16.60
2022-08-22T05:05:13.439Z,16.60
2022-08-22T05:07:47.997Z,16.60
2022-08-22T05:10:20.784Z,16.70
2022-08-22T05:12:55.535Z,16.70
2022-08-22T05:15:29.329Z,16.70
2022-08-22T05:18:04.490Z,16.60
2022-08-22T05:20:35.303Z,16.70
2022-08-22T05:23:17.815Z,16.70
2022-08-22T05:25:49.883Z,16.70
2022-08-22T05:28:27.174Z,16.60
2022-08-22T05:30:56.991Z,16.70
2022-08-22T05:33:29.331Z,16.80
2022-08-22T05:36:03.889Z,16.70
2022-08-22T05:38:38.120Z,16.60
2022-08-22T05:41:10.775Z,16.70
2022-08-22T05:43:42.559Z,16.70
2022-08-22T05:46:19.969Z,16.80
2022-08-22T05:49:00.100Z,16.70
2022-08-22T05:51:35.041Z,16.80
2022-08-22T05:54:13.140Z,16.90
2022-08-22T05:56:46.625Z,16.80
2022-08-22T05:59:27.075Z,16.70
2022-08-22T06:02:05.785Z,16.60
2022-08-22T06:04:40.436Z,16.70
2022-08-22T06:07:16.198Z,16.70
2022-08-22T06:10:08.579Z,16.70
2022-08-22T06:12:43.113Z,16.70
2022-08-22T06:15:21.100Z,16.70
2022-08-22T06:17:52.158Z,16.70
2022-08-22T06:20:34.539Z,16.70
2022-08-22T06:23:04.668Z,16.80
2022-08-22T06:25:38.075Z,16.90
2022-08-22T06:28:10.774Z,16.90
2022-08-22T06:30:40.954Z,16.90
2022-08-22T06:33:13.747Z,16.90
2022-08-22T06:36:03.098Z,17.00
2022-08-22T06:38:35.924Z,16.90
2022-08-22T06:41:10.978Z,16.80
2022-08-22T06:43:43.458Z,16.80
2022-08-22T06:46:16.488Z,16.80
2022-08-22T06:48:46.412Z,16.90
2022-08-22T06:51:18.940Z,16.70
2022-08-22T06:53:49.989Z,16.60
2022-08-22T06:56:26.124Z,16.60
2022-08-22T06:59:03.950Z,16.60
2022-08-22T07:01:36.548Z,16.60
2022-08-22T07:04:08.509Z,16.60
2022-08-22T07:06:39.784Z,16.50
2022-08-22T07:09:09.892Z,16.60
2022-08-22T07:11:43.292Z,16.60
2022-08-22T07:14:15.531Z,16.60
2022-08-22T07:16:48.382Z,16.60
2022-08-22T07:19:26.475Z,16.60
2022-08-22T07:21:59.153Z,16.60
2022-08-22T07:24:31.069Z,16.60
2022-08-22T07:27:12.882Z,16.40
2022-08-22T07:29:50.895Z,16.50
2022-08-22T07:32:25.709Z,16.60
2022-08-22T07:35:09.346Z,16.60
2022-08-22T07:37:54.203Z,16.70
2022-08-22T07:40:28.639Z,16.80
2022-08-22T07:43:03.537Z,16.70
2022-08-22T07:45:40.285Z,16.80
2022-08-22T07:48:26.045Z,16.70
2022-08-22T07:51:09.456Z,16.80
2022-08-22T07:53:43.450Z,16.90
2022-08-22T07:56:18.096Z,16.60
2022-08-22T07:58:51.988Z,16.60
2022-08-22T08:01:23.940Z,16.80
2022-08-22T08:03:56.048Z,17.00
2022-08-22T08:06:26.579Z,17.00
2022-08-22T08:08:56.388Z,17.10
2022-08-22T08:11:28.517Z,17.20
2022-08-22T08:14:03.294Z,17.30
2022-08-22T08:16:41.497Z,17.30
2022-08-22T08:19:11.992Z,17.40
2022-08-22T08:21:43.826Z,17.40
2022-08-22T08:24:17.520Z,17.50
2022-08-22T08:27:07.218Z,17.50
2022-08-22T08:29:38.015Z,17.40
2022-08-22T08:32:09.975Z,17.40
2022-08-22T08:34:40.539Z,17.50
2022-08-22T08:37:16.658Z,17.50
2022-08-22T08:39:50.993Z,17.60
2022-08-22T08:43:14.423Z,17.70
2022-08-22T08:46:08.503Z,17.70
2022-08-22T08:49:15.984Z,17.80
2022-08-22T08:51:59.251Z,17.80
2022-08-22T08:54:52.451Z,17.90
2022-08-22T08:57:33.135Z,17.90
2022-08-22T09:00:10.365Z,17.90
2022-08-22T09:02:54.532Z,17.90
2022-08-22T09:05:56.036Z,18.00
2022-08-22T09:08:55.967Z,18.20
2022-08-22T09:12:01.001Z,18.30
2022-08-22T09:14:54.925Z,18.40
2022-08-22T09:17:43.490Z,18.50
2022-08-22T09:20:38.856Z,18.60
2022-08-22T09:23:56.962Z,18.60
2022-08-22T09:26:31.403Z,18.70
2022-08-22T09:29:51.406Z,18.70
2022-08-22T09:32:42.057Z,18.80
2022-08-22T09:35:22.479Z,18.90
2022-08-22T09:38:10.270Z,19.00
2022-08-22T09:40:46.246Z,18.90
2022-08-22T09:43:22.862Z,18.90
2022-08-22T09:46:01.857Z,18.80
2022-08-22T09:48:48.930Z,18.90
2022-08-22T09:51:32.386Z,19.00
2022-08-22T09:54:23.593Z,18.90
2022-08-22T09:57:08.500Z,18.70
2022-08-22T09:59:53.618Z,18.60
2022-08-22T10:02:34.845Z,18.80
2022-08-22T10:05:35.167Z,18.80
2022-08-22T10:08:14.895Z,18.70
2022-08-22T10:11:23.776Z,18.70
2022-08-22T10:14:02.560Z,18.80
2022-08-22T10:16:50.084Z,18.90
2022-08-22T10:19:28.200Z,19.00
2022-08-22T10:22:21.148Z,18.90
2022-08-22T10:24:59.814Z,18.80
2022-08-22T10:27:44.887Z,18.80
2022-08-22T10:30:18.839Z,18.80
2022-08-22T10:32:55.289Z,18.90
2022-08-22T10:35:34.023Z,18.80
2022-08-22T10:38:16.958Z,18.80
2022-08-22T10:41:09.408Z,18.80
2022-08-22T10:43:49.749Z,18.80
2022-08-22T10:46:36.438Z,18.90
2022-08-22T10:49:17.984Z,18.90
2022-08-22T10:51:53.284Z,18.90
2022-08-22T10:54:52.914Z,18.90
2022-08-22T10:57:50.695Z,18.90
2022-08-22T11:00:46.132Z,18.80
2022-08-22T11:03:23.472Z,18.90
2022-08-22T11:05:56.422Z,18.90
2022-08-22T11:08:56.625Z,19.00
2022-08-22T11:11:47.552Z,18.90
2022-08-22T11:14:45.482Z,18.70
2022-08-22T11:17:40.647Z,18.90
2022-08-22T11:20:21.411Z,19.00
2022-08-22T11:23:08.472Z,18.90
2022-08-22T11:25:53.983Z,18.90
2022-08-22T11:29:13.662Z,18.90
2022-08-22T11:31:52.366Z,18.90
2022-08-22T11:34:36.144Z,19.00
2022-08-22T11:37:14.709Z,18.90
2022-08-22T11:39:51.666Z,18.90
2022-08-22T11:42:29.593Z,19.00
2022-08-22T11:45:02.864Z,19.10
2022-08-22T11:47:36.385Z,19.10
2022-08-22T11:50:16.752Z,19.10
2022-08-22T11:53:15.387Z,19.20
2022-08-22T11:55:58.446Z,19.20
2022-08-22T11:58:43.758Z,19.30
2022-08-22T12:01:18.650Z,19.20
2022-08-22T12:04:09.928Z,19.20
2022-08-22T12:07:03.176Z,19.30
2022-08-22T12:09:52.432Z,19.40
2022-08-22T12:12:37.394Z,19.50
2022-08-22T12:15:18.742Z,19.50
2022-08-22T12:18:31.448Z,19.50
2022-08-22T12:21:38.374Z,19.40
2022-08-22T12:24:35.188Z,19.50
2022-08-22T12:27:37.018Z,19.50
2022-08-22T12:30:14.119Z,19.60
2022-08-22T12:33:15.493Z,19.70
2022-08-22T12:36:18.109Z,19.70
2022-08-22T12:39:02.234Z,19.60
2022-08-22T12:42:05.150Z,19.50
2022-08-22T12:44:46.780Z,19.50
2022-08-22T12:47:34.449Z,19.60
2022-08-22T12:50:19.925Z,19.70
2022-08-22T12:53:18.290Z,19.80
2022-08-22T12:56:10.194Z,19.90
2022-08-22T12:59:10.766Z,19.80
2022-08-22T13:01:45.998Z,19.80
2022-08-22T13:04:31.032Z,19.80
2022-08-22T13:07:09.691Z,19.90
2022-08-22T13:09:43.279Z,19.90
2022-08-22T13:12:27.744Z,19.90
2022-08-22T13:15:02.492Z,19.80
2022-08-22T13:17:31.549Z,19.80
2022-08-22T13:20:12.841Z,19.90
2022-08-22T13:22:45.585Z,20.00
2022-08-22T13:25:26.046Z,20.10
2022-08-22T13:27:59.111Z,20.10
2022-08-22T13:30:34.132Z,20.00
2022-08-22T13:33:10.271Z,19.90
2022-08-22T13:35:51.918Z,19.90
2022-08-22T13:38:30.345Z,19.80
2022-08-22T13:41:10.729Z,19.50
2022-08-22T13:44:04.303Z,19.40
2022-08-22T13:46:52.711Z,19.40
2022-08-22T13:49:40.666Z,19.50
2022-08-22T13:52:29.347Z,19.40
2022-08-22T13:55:03.732Z,19.50
2022-08-22T13:57:45.501Z,19.50
2022-08-22T14:00:56.563Z,19.70
2022-08-22T14:03:38.879Z,19.70
2022-08-22T14:06:35.470Z,19.80
2022-08-22T14:09:32.341Z,19.90
2022-08-22T14:12:13.905Z,19.80
2022-08-22T14:14:46.177Z,19.70
2022-08-22T14:17:21.095Z,19.70
2022-08-22T14:19:59.363Z,19.70
2022-08-22T14:22:40.265Z,19.80
2022-08-22T14:25:18.208Z,19.80
2022-08-22T14:28:01.053Z,19.80
2022-08-22T14:30:38.301Z,19.90
2022-08-22T14:33:14.693Z,19.80
2022-08-22T14:35:52.694Z,19.80
2022-08-22T14:38:30.140Z,19.60
2022-08-22T14:41:05.218Z,19.50
2022-08-22T14:44:03.554Z,19.50
2022-08-22T14:46:39.277Z,19.60
2022-08-22T14:49:31.894Z,19.60
2022-08-22T14:52:10.629Z,19.70
2022-08-22T14:54:48.867Z,19.70
2022-08-22T14:57:21.181Z,19.80
2022-08-22T14:59:52.819Z,19.80
2022-08-22T15:02:29.846Z,19.80
2022-08-22T15:05:06.137Z,19.80
2022-08-22T15:07:37.861Z,19.80
2022-08-22T15:10:11.998Z,19.80
2022-08-22T15:12:48.743Z,19.80
2022-08-22T15:15:30.842Z,19.80
2022-08-22T15:18:00.027Z,19.90
2022-08-22T15:20:36.385Z,19.80
2022-08-22T15:23:23.718Z,19.70
2022-08-22T15:26:01.125Z,19.60
2022-08-22T15:28:52.553Z,19.60
2022-08-22T15:31:22.935Z,19.60
2022-08-22T15:33:52.557Z,19.60
2022-08-22T15:36:25.211Z,19.70
2022-08-22T15:39:01.131Z,19.80
2022-08-22T15:41:42.294Z,19.80
2022-08-22T15:44:32.379Z,19.80
2022-08-22T15:47:11.721Z,19.80
2022-08-22T15:49:58.476Z,19.80
2022-08-22T15:52:30.766Z,19.70
2022-08-22T15:55:26.291Z,19.70
2022-08-22T15:58:51.074Z,19.70
2022-08-22T16:02:13.652Z,19.60
2022-08-22T16:04:52.135Z,19.70
2022-08-22T16:07:40.784Z,19.60
2022-08-22T16:10:14.796Z,19.60
2022-08-22T16:12:47.923Z,19.60
2022-08-22T16:15:56.685Z,19.50
2022-08-22T16:19:02.644Z,19.50
2022-08-22T16:22:15.070Z,19.50
2022-08-22T16:25:10.160Z,19.40
2022-08-22T16:27:56.678Z,19.50
2022-08-22T16:30:36.148Z,19.50
2022-08-22T16:33:17.780Z,19.50
2022-08-22T16:36:24.167Z,19.50
2022-08-22T16:38:56.507Z,19.60
2022-08-22T16:41:40.414Z,19.60
2022-08-22T16:44:39.052Z,19.60
2022-08-22T16:47:15.359Z,19.50
2022-08-22T16:50:24.531Z,19.50
2022-08-22T16:53:03.088Z,19.50
2022-08-22T16:56:11.849Z,19.50
2022-08-22T16:59:23.322Z,19.40
2022-08-22T17:02:15.972Z,19.40
2022-08-22T17:04:56.843Z,19.40
2022-08-22T17:07:44.333Z,19.50
2022-08-22T17:10:45.050Z,19.50
2022-08-22T17:13:32.879Z,19.50
2022-08-22T17:16:22.957Z,19.40
2022-08-22T17:19:02.802Z,19.30
2022-08-22T17:21:38.878Z,19.30
2022-08-22T17:24:31.605Z,19.40
2022-08-22T17:27:13.744Z,19.40
2022-08-22T17:30:01.971Z,19.30
2022-08-22T17:32:38.842Z,19.30
2022-08-22T17:35:20.718Z,19.20
2022-08-22T17:37:59.279Z,19.30
2022-08-22T17:40:38.132Z,19.30
2022-08-22T17:43:49.250Z,19.30
2022-08-22T17:46:35.142Z,19.30
2022-08-22T17:49:15.993Z,19.30
2022-08-22T17:51:52.691Z,19.30
2022-08-22T17:54:29.839Z,19.30
2022-08-22T17:57:05.949Z,19.30
2022-08-22T17:59:45.955Z,19.30
2022-08-22T18:02:19.180Z,19.20
2022-08-22T18:04:52.648Z,19.20
2022-08-22T18:07:50.469Z,19.20
2022-08-22T18:10:29.340Z,19.20
2022-08-22T18:13:07.657Z,19.20
2022-08-22T18:15:52.494Z,19.20
2022-08-22T18:18:31.576Z,19.20
2022-08-22T18:21:10.048Z,19.20
2022-08-22T18:23:49.053Z,19.20
2022-08-22T18:26:34.339Z,19.20
2022-08-22T18:29:13.864Z,19.10
2022-08-22T18:31:57.463Z,19.10
2022-08-22T18:34:43.850Z,19.10
2022-08-22T18:37:35.411Z,19.10
2022-08-22T18:40:52.343Z,19.00
2022-08-22T18:43:41.023Z,19.10
2022-08-22T18:46:45.552Z,19.10
2022-08-22T18:49:48.587Z,19.10
2022-08-22T18:52:27.567Z,19.00
2022-08-22T18:55:33.559Z,19.00
2022-08-22T18:58:38.895Z,19.00
2022-08-22T19:01:44.465Z,18.90
2022-08-22T19:04:54.200Z,19.00
2022-08-22T19:08:11.870Z,19.10
2022-08-22T19:11:36.838Z,19.10
2022-08-22T19:15:01.707Z,19.00
2022-08-22T19:18:03.557Z,18.90
2022-08-22T19:20:52.868Z,18.90
2022-08-22T19:24:01.319Z,19.00
2022-08-22T19:26:54.590Z,19.10
2022-08-22T19:30:18.834Z,19.00
2022-08-22T19:33:14.707Z,18.90
2022-08-22T19:40:27.863Z,18.90
2022-08-22T19:46:49.648Z,18.80
2022-08-22T19:49:42.768Z,18.90
2022-08-22T19:53:11.450Z,18.90
2022-08-22T19:56:07.696Z,18.90
2022-08-22T19:59:00.858Z,18.90
2022-08-22T20:01:58.794Z,18.70
2022-08-22T20:05:15.160Z,18.80
2022-08-22T20:11:42.910Z,18.80
2022-08-22T20:14:18.666Z,18.80
2022-08-22T20:17:13.680Z,18.90
2022-08-22T20:22:47.538Z,18.80
2022-08-22T20:25:41.796Z,18.80
2022-08-22T20:28:46.193Z,18.80
2022-08-22T20:31:46.525Z,18.80
2022-08-22T20:34:36.050Z,18.70
2022-08-22T20:37:29.455Z,18.70
2022-08-22T20:40:25.888Z,18.70
2022-08-22T20:43:10.419Z,18.70
2022-08-22T20:45:45.659Z,18.60
2022-08-22T20:48:20.508Z,18.70
2022-08-22T20:50:56.334Z,18.70
2022-08-22T20:53:26.169Z,18.70
2022-08-22T20:56:16.739Z,18.70
2022-08-22T20:58:49.368Z,18.70
2022-08-22T21:01:19.601Z,18.70
2022-08-22T21:03:51.918Z,18.70
2022-08-22T21:06:31.937Z,18.70
2022-08-22T21:09:31.391Z,18.70
2022-08-22T21:12:01.650Z,18.80
2022-08-22T21:14:37.860Z,18.80
2022-08-22T21:17:25.253Z,18.90
2022-08-22T21:19:58.765Z,18.80
2022-08-22T21:22:34.489Z,18.80
2022-08-22T21:25:04.759Z,18.70
2022-08-22T21:27:35.223Z,18.70
2022-08-22T21:30:07.570Z,18.70
2022-08-22T21:32:40.913Z,18.70
2022-08-22T21:35:25.776Z,18.70
2022-08-22T21:37:57.388Z,18.80
2022-08-22T21:40:33.552Z,18.80
2022-08-22T21:43:10.689Z,18.80
2022-08-22T21:45:45.551Z,18.90
2022-08-22T21:48:39.277Z,18.80
2022-08-22T21:51:32.589Z,18.80
2022-08-22T21:54:47.472Z,18.80
2022-08-22T21:57:49.312Z,18.90
2022-08-22T22:00:53.745Z,18.90
2022-08-22T22:03:31.450Z,18.90
2022-08-22T22:06:14.838Z,18.90
2022-08-22T22:08:45.934Z,18.90
2022-08-22T22:11:17.366Z,18.90
2022-08-22T22:13:46.426Z,18.90
2022-08-22T22:16:19.636Z,19.00
2022-08-22T22:18:48.326Z,19.00
2022-08-22T22:21:17.120Z,18.90
2022-08-22T22:23:45.848Z,18.90
2022-08-22T22:26:16.348Z,18.90
2022-08-22T22:28:48.744Z,18.90
2022-08-22T22:31:18.563Z,18.90
2022-08-22T22:33:47.660Z,18.90
2022-08-22T22:36:19.702Z,19.00
2022-08-22T22:38:51.631Z,18.90
2022-08-22T22:41:25.887Z,19.00
2022-08-22T22:43:55.436Z,18.90
2022-08-22T22:46:27.059Z,19.00
2022-08-22T22:48:56.045Z,19.00
2022-08-22T22:51:25.078Z,19.00
2022-08-22T22:53:53.818Z,19.00
2022-08-22T22:56:25.489Z,19.00
2022-08-22T22:59:00.637Z,19.00
2022-08-22T23:01:39.680Z,19.00
2022-08-22T23:04:09.830Z,19.10
2022-08-22T23:06:38.559Z,19.10
2022-08-22T23:09:07.236Z,19.00
2022-08-22T23:11:37.345Z,19.00
2022-08-22T23:14:05.986Z,19.10
2022-08-22T23:16:37.349Z,19.10
2022-08-22T23:19:10.038Z,19.10
2022-08-22T23:21:39.187Z,19.10
2022-08-22T23:24:08.001Z,19.10
2022-08-22T23:26:38.765Z,19.10
2022-08-22T23:29:08.116Z,19.00
2022-08-22T23:31:39.737Z,19.00
2022-08-22T23:34:11.967Z,19.00
2022-08-22T23:36:42.672Z,19.00
2022-08-22T23:39:11.758Z,19.00
2022-08-22T23:41:42.627Z,18.90
2022-08-22T23:44:13.429Z,18.90
2022-08-22T23:46:43.401Z,18.90
2022-08-22T23:49:12.262Z,19.00
2022-08-22T23:51:42.150Z,19.00
2022-08-22T23:54:11.233Z,19.00
2022-08-22T23:56:43.322Z,19.00
2022-08-22T23:59:15.399Z,19.10
